createdAt,value
2019-02-12T00:00:38.448Z,1019.09
2019-02-12T00:01:38.440Z,1019.07
2019-02-12T00:02:38.432Z,1019.09
2019-02-12T00:03:38.422Z,1019.10
2019-02-12T00:04:38.415Z,1019.09
2019-02-12T00:05:38.406Z,1019.11
2019-02-12T00:06:38.399Z,1019.14
2019-02-12T00:07:38.398Z,1019.13
2019-02-12T00:08:38.386Z,1019.18
2019-02-12T00:09:38.374Z,1019.17
2019-02-12T00:10:38.366Z,1019.24
2019-02-12T00:11:38.357Z,1019.33
2019-02-12T00:12:38.351Z,1019.36
2019-02-12T00:13:38.341Z,1019.32
2019-02-12T00:14:38.332Z,1019.35
2019-02-12T00:15:38.330Z,1019.40
2019-02-12T00:16:38.317Z,1019.42
2019-02-12T00:17:38.316Z,1019.44
2019-02-12T00:18:38.299Z,1019.41
2019-02-12T00:19:38.291Z,1019.40
2019-02-12T00:20:38.285Z,1019.38
2019-02-12T00:21:38.274Z,1019.40
2019-02-12T00:22:38.268Z,1019.47
2019-02-12T00:23:38.258Z,1019.47
2019-02-12T00:24:38.252Z,1019.46
2019-02-12T00:25:38.243Z,1019.45
2019-02-12T00:26:38.234Z,1019.52
2019-02-12T00:27:38.225Z,1019.54
2019-02-12T00:28:38.217Z,1019.52
2019-02-12T00:29:38.208Z,1019.52
2019-02-12T00:30:38.200Z,1019.51
2019-02-12T00:31:38.192Z,1019.50
2019-02-12T00:32:38.185Z,1019.46
2019-02-12T00:33:38.175Z,1019.47
2019-02-12T00:34:38.167Z,1019.45
2019-02-12T00:35:38.159Z,1019.47
2019-02-12T00:36:38.153Z,1019.42
2019-02-12T00:37:38.144Z,1019.41
2019-02-12T00:38:38.137Z,1019.39
2019-02-12T00:39:38.127Z,1019.44
2019-02-12T00:40:38.121Z,1019.45
2019-02-12T00:41:38.108Z,1019.49
2019-02-12T00:42:38.104Z,1019.42
2019-02-12T00:43:38.093Z,1019.44
2019-02-12T00:44:38.086Z,1019.39
2019-02-12T00:45:38.077Z,1019.39
2019-02-12T00:46:38.069Z,1019.38
2019-02-12T00:47:38.063Z,1019.36
2019-02-12T00:48:38.052Z,1019.41
2019-02-12T00:49:38.044Z,1019.38
2019-02-12T00:50:38.035Z,1019.36
2019-02-12T00:51:38.027Z,1019.39
2019-02-12T00:52:38.019Z,1019.35
2019-02-12T00:53:38.012Z,1019.33
2019-02-12T00:54:38.007Z,1019.33
2019-02-12T00:55:37.995Z,1019.34
2019-02-12T00:56:37.986Z,1019.31
2019-02-12T00:57:37.979Z,1019.29
2019-02-12T00:58:37.970Z,1019.34
2019-02-12T00:59:37.963Z,1019.39
2019-02-12T01:00:37.956Z,1019.41
2019-02-12T01:01:37.950Z,1019.43
2019-02-12T01:02:37.938Z,1019.42
2019-02-12T01:03:37.938Z,1019.37
2019-02-12T01:04:37.920Z,1019.40
2019-02-12T01:05:37.912Z,1019.44
2019-02-12T01:06:37.903Z,1019.42
2019-02-12T01:07:37.897Z,1019.45
2019-02-12T01:08:37.889Z,1019.43
2019-02-12T01:09:37.879Z,1019.42
2019-02-12T01:10:37.872Z,1019.36
2019-02-12T01:11:37.862Z,1019.40
2019-02-12T01:12:37.854Z,1019.39
2019-02-12T01:13:37.846Z,1019.44
2019-02-12T01:14:37.838Z,1019.43
2019-02-12T01:15:37.830Z,1019.36
2019-02-12T01:16:37.826Z,1019.45
2019-02-12T01:17:37.812Z,1019.53
2019-02-12T01:18:37.805Z,1019.50
2019-02-12T01:19:37.796Z,1019.52
2019-02-12T01:20:37.789Z,1019.52
2019-02-12T01:21:37.780Z,1019.55
2019-02-12T01:22:37.772Z,1019.47
2019-02-12T01:23:37.765Z,1019.54
2019-02-12T01:24:37.756Z,1019.55
2019-02-12T01:25:37.746Z,1019.47
2019-02-12T01:26:37.738Z,1019.47
2019-02-12T01:27:37.730Z,1019.47
2019-02-12T01:28:37.723Z,1019.53
2019-02-12T01:29:37.715Z,1019.52
2019-02-12T01:30:37.709Z,1019.56
2019-02-12T01:31:37.698Z,1019.60
2019-02-12T01:32:37.693Z,1019.51
2019-02-12T01:33:37.682Z,1019.59
2019-02-12T01:34:37.673Z,1019.52
2019-02-12T01:35:37.665Z,1019.49
2019-02-12T01:36:37.706Z,1019.60
2019-02-12T01:37:37.648Z,1019.63
2019-02-12T01:38:37.641Z,1019.65
2019-02-12T01:39:37.634Z,1019.62
2019-02-12T01:40:37.623Z,1019.61
2019-02-12T01:41:37.615Z,1019.58
2019-02-12T01:42:37.608Z,1019.57
2019-02-12T01:43:37.599Z,1019.53
2019-02-12T01:44:37.592Z,1019.57
2019-02-12T01:45:37.584Z,1019.64
2019-02-12T01:46:37.575Z,1019.63
2019-02-12T01:47:37.568Z,1019.59
2019-02-12T01:48:37.561Z,1019.64
2019-02-12T01:49:37.552Z,1019.62
2019-02-12T01:50:37.542Z,1019.62
2019-02-12T01:51:37.536Z,1019.65
2019-02-12T01:52:37.527Z,1019.64
2019-02-12T01:53:37.518Z,1019.62
2019-02-12T01:54:37.511Z,1019.66
2019-02-12T01:55:37.502Z,1019.67
2019-02-12T01:56:37.507Z,1019.71
2019-02-12T01:57:37.487Z,1019.67
2019-02-12T01:58:37.478Z,1019.72
2019-02-12T01:59:37.470Z,1019.67
2019-02-12T02:00:37.462Z,1019.66
2019-02-12T02:01:37.455Z,1019.71
2019-02-12T02:02:37.445Z,1019.72
2019-02-12T02:03:37.437Z,1019.69
2019-02-12T02:04:37.431Z,1019.70
2019-02-12T02:05:37.420Z,1019.68
2019-02-12T02:06:37.414Z,1019.69
2019-02-12T02:07:37.405Z,1019.73
2019-02-12T02:08:37.399Z,1019.75
2019-02-12T02:09:37.389Z,1019.79
2019-02-12T02:10:39.076Z,1019.84
2019-02-12T02:11:37.372Z,1019.84
2019-02-12T02:12:37.365Z,1019.85
2019-02-12T02:13:37.360Z,1019.84
2019-02-12T02:14:37.348Z,1019.84
2019-02-12T02:15:37.340Z,1019.87
2019-02-12T02:16:37.333Z,1019.86
2019-02-12T02:17:37.325Z,1019.88
2019-02-12T02:18:37.317Z,1019.88
2019-02-12T02:19:37.308Z,1019.89
2019-02-12T02:20:37.300Z,1019.89
2019-02-12T02:21:43.925Z,1019.88
2019-02-12T02:22:37.284Z,1019.88
2019-02-12T02:23:37.276Z,1019.83
2019-02-12T02:24:37.268Z,1019.86
2019-02-12T02:25:37.266Z,1019.90
2019-02-12T02:26:37.252Z,1019.87
2019-02-12T02:27:37.244Z,1019.88
2019-02-12T02:28:37.237Z,1019.95
2019-02-12T02:29:37.229Z,1019.95
2019-02-12T02:30:37.220Z,1019.94
2019-02-12T02:31:37.213Z,1019.99
2019-02-12T02:32:37.204Z,1019.93
2019-02-12T02:33:37.205Z,1020.00
2019-02-12T02:34:37.189Z,1019.99
2019-02-12T02:35:37.180Z,1019.96
2019-02-12T02:36:37.173Z,1019.94
2019-02-12T02:37:37.167Z,1019.97
2019-02-12T02:38:37.156Z,1019.94
2019-02-12T02:39:37.153Z,1019.93
2019-02-12T02:40:37.143Z,1019.98
2019-02-12T02:41:37.132Z,1019.97
2019-02-12T02:42:37.125Z,1019.96
2019-02-12T02:43:37.118Z,1020.00
2019-02-12T02:44:37.110Z,1020.07
2019-02-12T02:45:37.103Z,1020.02
2019-02-12T02:46:37.095Z,1020.01
2019-02-12T02:47:37.089Z,1019.99
2019-02-12T02:48:37.078Z,1019.97
2019-02-12T02:49:37.075Z,1019.99
2019-02-12T02:50:37.063Z,1019.99
2019-02-12T02:51:37.055Z,1020.01
2019-02-12T02:52:37.047Z,1020.03
2019-02-12T02:53:37.046Z,1020.03
2019-02-12T02:54:37.032Z,1020.05
2019-02-12T02:55:37.023Z,1020.05
2019-02-12T02:56:37.015Z,1020.03
2019-02-12T02:57:37.010Z,1020.07
2019-02-12T02:58:37.000Z,1020.02
2019-02-12T02:59:36.994Z,1020.05
2019-02-12T03:00:36.984Z,1020.11
2019-02-12T03:01:36.976Z,1020.13
2019-02-12T03:02:36.971Z,1020.09
2019-02-12T03:03:36.960Z,1020.10
2019-02-12T03:04:36.954Z,1020.05
2019-02-12T03:05:36.944Z,1020.04
2019-02-12T03:06:36.937Z,1020.01
2019-02-12T03:07:36.935Z,1020.06
2019-02-12T03:08:36.921Z,1020.08
2019-02-12T03:09:36.911Z,1020.13
2019-02-12T03:10:36.911Z,1020.12
2019-02-12T03:11:36.898Z,1020.16
2019-02-12T03:12:36.888Z,1020.16
2019-02-12T03:13:36.882Z,1020.18
2019-02-12T03:14:36.874Z,1020.17
2019-02-12T03:15:36.866Z,1020.16
2019-02-12T03:16:36.857Z,1020.20
2019-02-12T03:17:36.852Z,1020.17
2019-02-12T03:18:36.841Z,1020.22
2019-02-12T03:19:36.833Z,1020.20
2019-02-12T03:20:36.827Z,1020.19
2019-02-12T03:21:36.822Z,1020.26
2019-02-12T03:22:36.808Z,1020.21
2019-02-12T03:23:36.801Z,1020.22
2019-02-12T03:24:36.815Z,1020.19
2019-02-12T03:25:36.785Z,1020.13
2019-02-12T03:26:36.775Z,1020.16
2019-02-12T03:27:36.772Z,1020.15
2019-02-12T03:28:36.769Z,1020.18
2019-02-12T03:29:36.750Z,1020.13
2019-02-12T03:30:36.743Z,1020.16
2019-02-12T03:31:36.755Z,1020.22
2019-02-12T03:32:36.728Z,1020.18
2019-02-12T03:33:36.736Z,1020.18
2019-02-12T03:34:36.711Z,1020.16
2019-02-12T03:35:36.705Z,1020.13
2019-02-12T03:36:36.692Z,1020.12
2019-02-12T03:37:36.684Z,1020.11
2019-02-12T03:38:36.678Z,1020.13
2019-02-12T03:39:36.669Z,1020.06
2019-02-12T03:40:36.662Z,1020.11
2019-02-12T03:41:36.652Z,1020.08
2019-02-12T03:42:36.644Z,1020.05
2019-02-12T03:43:36.635Z,1020.07
2019-02-12T03:44:36.627Z,1020.01
2019-02-12T03:45:36.617Z,1020.04
2019-02-12T03:46:36.611Z,1020.08
2019-02-12T03:47:36.603Z,1020.12
2019-02-12T03:48:36.598Z,1020.10
2019-02-12T03:49:36.586Z,1020.15
2019-02-12T03:50:36.577Z,1020.19
2019-02-12T03:51:36.573Z,1020.16
2019-02-12T03:52:36.563Z,1020.17
2019-02-12T03:53:36.553Z,1020.21
2019-02-12T03:54:36.545Z,1020.20
2019-02-12T03:55:36.539Z,1020.19
2019-02-12T03:56:36.533Z,1020.20
2019-02-12T03:57:36.519Z,1020.22
2019-02-12T03:58:36.512Z,1020.19
2019-02-12T03:59:36.503Z,1020.19
2019-02-12T04:00:36.496Z,1020.15
2019-02-12T04:01:36.488Z,1020.16
2019-02-12T04:02:36.482Z,1020.19
2019-02-12T04:03:36.756Z,1020.21
2019-02-12T04:04:36.465Z,1020.20
2019-02-12T04:05:36.453Z,1020.21
2019-02-12T04:06:36.447Z,1020.14
2019-02-12T04:07:36.441Z,1020.26
2019-02-12T04:08:36.431Z,1020.17
2019-02-12T04:09:36.422Z,1020.19
2019-02-12T04:10:36.416Z,1020.21
2019-02-12T04:11:36.414Z,1020.24
2019-02-12T04:12:36.398Z,1020.25
2019-02-12T04:13:36.388Z,1020.24
2019-02-12T04:14:36.382Z,1020.26
2019-02-12T04:15:36.374Z,1020.27
2019-02-12T04:16:36.364Z,1020.28
2019-02-12T04:17:36.356Z,1020.23
2019-02-12T04:18:36.351Z,1020.23
2019-02-12T04:19:36.338Z,1020.18
2019-02-12T04:20:36.351Z,1020.20
2019-02-12T04:21:36.321Z,1020.24
2019-02-12T04:22:36.321Z,1020.25
2019-02-12T04:23:36.305Z,1020.22
2019-02-12T04:24:36.298Z,1020.22
2019-02-12T04:25:36.291Z,1020.22
2019-02-12T04:26:36.281Z,1020.20
2019-02-12T04:27:36.270Z,1020.19
2019-02-12T04:28:36.264Z,1020.18
2019-02-12T04:29:36.253Z,1020.19
2019-02-12T04:30:36.250Z,1020.19
2019-02-12T04:31:36.243Z,1020.19
2019-02-12T04:32:36.230Z,1020.19
2019-02-12T04:33:36.219Z,1020.16
2019-02-12T04:34:36.211Z,1020.17
2019-02-12T04:35:36.202Z,1020.17
2019-02-12T04:36:36.199Z,1020.12
2019-02-12T04:37:36.185Z,1020.14
2019-02-12T04:38:36.178Z,1020.16
2019-02-12T04:39:36.170Z,1020.10
2019-02-12T04:40:36.164Z,1020.18
2019-02-12T04:41:36.151Z,1020.13
2019-02-12T04:42:36.146Z,1020.15
2019-02-12T04:43:36.136Z,1020.15
2019-02-12T04:44:36.127Z,1020.24
2019-02-12T04:45:36.118Z,1020.15
2019-02-12T04:46:36.110Z,1020.20
2019-02-12T04:47:36.101Z,1020.22
2019-02-12T04:48:36.092Z,1020.23
2019-02-12T04:49:36.083Z,1020.27
2019-02-12T04:50:36.074Z,1020.26
2019-02-12T04:51:36.064Z,1020.24
2019-02-12T04:52:36.057Z,1020.28
2019-02-12T04:53:36.047Z,1020.24
2019-02-12T04:54:36.040Z,1020.30
2019-02-12T04:55:36.060Z,1020.27
2019-02-12T04:56:36.024Z,1020.25
2019-02-12T04:57:36.017Z,1020.28
2019-02-12T04:58:36.005Z,1020.25
2019-02-12T04:59:35.995Z,1020.25
2019-02-12T05:00:36.000Z,1020.24
2019-02-12T05:01:35.978Z,1020.26
2019-02-12T05:02:35.971Z,1020.30
2019-02-12T05:03:35.964Z,1020.22
2019-02-12T05:04:36.003Z,1020.24
2019-02-12T05:05:35.948Z,1020.29
2019-02-12T05:06:35.936Z,1020.30
2019-02-12T05:07:35.936Z,1020.35
2019-02-12T05:08:35.919Z,1020.31
2019-02-12T05:09:35.910Z,1020.29
2019-02-12T05:10:35.905Z,1020.35
2019-02-12T05:11:35.892Z,1020.25
2019-02-12T05:12:35.886Z,1020.27
2019-02-12T05:13:35.875Z,1020.28
2019-02-12T05:14:35.867Z,1020.28
2019-02-12T05:15:35.859Z,1020.24
2019-02-12T05:16:35.852Z,1020.27
2019-02-12T05:17:35.852Z,1020.30
2019-02-12T05:18:35.835Z,1020.31
2019-02-12T05:19:35.825Z,1020.30
2019-02-12T05:20:35.817Z,1020.33
2019-02-12T05:21:35.806Z,1020.33
2019-02-12T05:22:43.182Z,1020.31
2019-02-12T05:23:35.793Z,1020.34
2019-02-12T05:24:35.783Z,1020.34
2019-02-12T05:25:35.774Z,1020.37
2019-02-12T05:26:35.764Z,1020.38
2019-02-12T05:27:35.758Z,1020.34
2019-02-12T05:28:35.750Z,1020.36
2019-02-12T05:29:35.740Z,1020.38
2019-02-12T05:30:35.731Z,1020.35
2019-02-12T05:31:35.726Z,1020.37
2019-02-12T05:32:35.715Z,1020.36
2019-02-12T05:33:35.707Z,1020.33
2019-02-12T05:34:35.697Z,1020.34
2019-02-12T05:35:35.691Z,1020.38
2019-02-12T05:36:35.682Z,1020.37
2019-02-12T05:37:35.673Z,1020.38
2019-02-12T05:38:35.666Z,1020.36
2019-02-12T05:39:35.655Z,1020.36
2019-02-12T05:40:35.649Z,1020.41
2019-02-12T05:41:35.647Z,1020.37
2019-02-12T05:42:35.637Z,1020.34
2019-02-12T05:43:35.622Z,1020.32
2019-02-12T05:44:35.615Z,1020.35
2019-02-12T05:45:35.606Z,1020.32
2019-02-12T05:46:35.596Z,1020.33
2019-02-12T05:47:35.591Z,1020.35
2019-02-12T05:48:35.581Z,1020.32
2019-02-12T05:49:35.573Z,1020.29
2019-02-12T05:50:35.565Z,1020.36
2019-02-12T05:51:35.557Z,1020.36
2019-02-12T05:52:35.551Z,1020.41
2019-02-12T05:53:35.538Z,1020.46
2019-02-12T05:54:35.531Z,1020.44
2019-02-12T05:55:35.524Z,1020.44
2019-02-12T05:56:35.513Z,1020.41
2019-02-12T05:57:35.503Z,1020.45
2019-02-12T05:58:35.497Z,1020.40
2019-02-12T05:59:35.487Z,1020.39
2019-02-12T06:00:35.479Z,1020.38
2019-02-12T06:01:35.469Z,1020.39
2019-02-12T06:02:35.462Z,1020.42
2019-02-12T06:03:35.454Z,1020.42
2019-02-12T06:04:35.447Z,1020.43
2019-02-12T06:05:35.438Z,1020.43
2019-02-12T06:06:35.428Z,1020.49
2019-02-12T06:07:35.419Z,1020.44
2019-02-12T06:08:35.411Z,1020.52
2019-02-12T06:09:35.402Z,1020.51
2019-02-12T06:10:35.395Z,1020.47
2019-02-12T06:11:35.388Z,1020.49
2019-02-12T06:12:35.380Z,1020.44
2019-02-12T06:13:35.370Z,1020.43
2019-02-12T06:14:35.362Z,1020.45
2019-02-12T06:15:35.353Z,1020.42
2019-02-12T06:16:35.348Z,1020.45
2019-02-12T06:17:35.338Z,1020.41
2019-02-12T06:18:35.328Z,1020.44
2019-02-12T06:19:35.352Z,1020.47
2019-02-12T06:20:35.312Z,1020.52
2019-02-12T06:21:35.301Z,1020.55
2019-02-12T06:22:35.293Z,1020.58
2019-02-12T06:23:35.285Z,1020.62
2019-02-12T06:24:35.279Z,1020.66
2019-02-12T06:25:35.267Z,1020.67
2019-02-12T06:26:35.268Z,1020.71
2019-02-12T06:27:35.252Z,1020.70
2019-02-12T06:28:35.244Z,1020.66
2019-02-12T06:29:35.236Z,1020.73
2019-02-12T06:30:35.226Z,1020.74
2019-02-12T06:31:35.219Z,1020.76
2019-02-12T06:32:35.210Z,1020.75
2019-02-12T06:33:35.201Z,1020.74
2019-02-12T06:34:35.193Z,1020.76
2019-02-12T06:35:35.192Z,1020.77
2019-02-12T06:36:35.176Z,1020.79
2019-02-12T06:37:35.168Z,1020.77
2019-02-12T06:38:35.161Z,1020.82
2019-02-12T06:39:35.152Z,1020.90
2019-02-12T06:40:35.145Z,1020.86
2019-02-12T06:41:35.149Z,1020.84
2019-02-12T06:42:35.158Z,1020.83
2019-02-12T06:43:35.119Z,1020.92
2019-02-12T06:44:35.108Z,1020.86
2019-02-12T06:45:35.101Z,1020.84
2019-02-12T06:46:35.094Z,1020.85
2019-02-12T06:47:35.083Z,1020.84
2019-02-12T06:48:35.075Z,1020.79
2019-02-12T06:49:35.065Z,1020.86
2019-02-12T06:50:35.058Z,1020.82
2019-02-12T06:51:35.050Z,1020.83
2019-02-12T06:52:35.042Z,1020.85
2019-02-12T06:53:35.032Z,1020.92
2019-02-12T06:54:35.024Z,1020.90
2019-02-12T06:55:35.017Z,1020.93
2019-02-12T06:56:35.061Z,1020.98
2019-02-12T06:57:36.752Z,1020.98
2019-02-12T06:58:35.045Z,1020.93
2019-02-12T06:59:34.997Z,1020.91
2019-02-12T07:00:34.974Z,1020.94
2019-02-12T07:01:34.967Z,1020.92
2019-02-12T07:02:34.956Z,1020.95
2019-02-12T07:03:34.948Z,1020.93
2019-02-12T07:04:34.941Z,1021.03
2019-02-12T07:05:34.930Z,1020.97
2019-02-12T07:06:34.924Z,1021.00
2019-02-12T07:07:34.915Z,1021.06
2019-02-12T07:08:34.907Z,1021.06
2019-02-12T07:09:34.897Z,1021.07
2019-02-12T07:10:34.945Z,1021.10
2019-02-12T07:11:34.882Z,1021.14
2019-02-12T07:12:34.873Z,1021.11
2019-02-12T07:13:34.867Z,1021.13
2019-02-12T07:14:34.857Z,1021.10
2019-02-12T07:15:34.848Z,1021.20
2019-02-12T07:16:34.839Z,1021.18
2019-02-12T07:17:34.832Z,1021.22
2019-02-12T07:18:34.823Z,1021.21
2019-02-12T07:19:34.817Z,1021.21
2019-02-12T07:20:34.806Z,1021.23
2019-02-12T07:21:34.802Z,1021.24
2019-02-12T07:22:34.790Z,1021.27
2019-02-12T07:23:34.781Z,1021.25
2019-02-12T07:24:34.778Z,1021.28
2019-02-12T07:25:34.764Z,1021.26
2019-02-12T07:26:34.775Z,1021.32
2019-02-12T07:27:34.760Z,1021.35
2019-02-12T07:28:34.742Z,1021.40
2019-02-12T07:29:34.735Z,1021.43
2019-02-12T07:30:34.725Z,1021.38
2019-02-12T07:31:34.831Z,1021.45
2019-02-12T07:32:34.728Z,1021.42
2019-02-12T07:33:34.701Z,1021.42
2019-02-12T07:34:34.691Z,1021.47
2019-02-12T07:35:34.690Z,1021.52
2019-02-12T07:36:34.678Z,1021.54
2019-02-12T07:37:34.668Z,1021.52
2019-02-12T07:38:34.659Z,1021.54
2019-02-12T07:39:34.651Z,1021.57
2019-02-12T07:40:34.643Z,1021.56
2019-02-12T07:41:34.634Z,1021.58
2019-02-12T07:42:34.629Z,1021.58
2019-02-12T07:43:34.622Z,1021.61
2019-02-12T07:44:34.612Z,1021.62
2019-02-12T07:45:34.606Z,1021.59
2019-02-12T07:46:34.601Z,1021.60
2019-02-12T07:47:34.587Z,1021.62
2019-02-12T07:48:34.580Z,1021.64
2019-02-12T07:49:34.570Z,1021.59
2019-02-12T07:50:34.563Z,1021.60
2019-02-12T07:51:34.555Z,1021.61
2019-02-12T07:52:34.550Z,1021.58
2019-02-12T07:53:34.544Z,1021.63
2019-02-12T07:54:34.530Z,1021.62
2019-02-12T07:55:34.524Z,1021.66
2019-02-12T07:56:34.515Z,1021.72
2019-02-12T07:57:34.510Z,1021.73
2019-02-12T07:58:34.503Z,1021.76
2019-02-12T07:59:34.493Z,1021.75
2019-02-12T08:00:34.489Z,1021.80
2019-02-12T08:01:34.476Z,1021.82
2019-02-12T08:02:34.473Z,1021.84
2019-02-12T08:03:34.461Z,1021.83
2019-02-12T08:04:34.460Z,1021.90
2019-02-12T08:05:34.443Z,1021.90
2019-02-12T08:06:34.436Z,1021.89
2019-02-12T08:07:34.431Z,1021.91
2019-02-12T08:08:34.421Z,1021.92
2019-02-12T08:09:34.416Z,1021.90
2019-02-12T08:10:34.408Z,1021.92
2019-02-12T08:11:34.397Z,1021.97
2019-02-12T08:12:34.391Z,1021.96
2019-02-12T08:13:34.382Z,1021.97
2019-02-12T08:14:34.375Z,1021.97
2019-02-12T08:15:34.368Z,1021.98
2019-02-12T08:16:34.360Z,1022.00
2019-02-12T08:17:34.351Z,1022.01
2019-02-12T08:18:34.344Z,1021.96
2019-02-12T08:19:34.337Z,1022.00
2019-02-12T08:20:34.330Z,1022.03
2019-02-12T08:21:34.322Z,1022.06
2019-02-12T08:22:34.313Z,1022.06
2019-02-12T08:23:41.045Z,1022.07
2019-02-12T08:24:34.303Z,1022.09
2019-02-12T08:25:34.296Z,1022.12
2019-02-12T08:26:34.283Z,1022.06
2019-02-12T08:27:34.277Z,1022.14
2019-02-12T08:28:34.268Z,1022.13
2019-02-12T08:29:34.268Z,1022.11
2019-02-12T08:30:34.254Z,1022.15
2019-02-12T08:31:34.249Z,1022.14
2019-02-12T08:32:34.238Z,1022.15
2019-02-12T08:33:34.230Z,1022.15
2019-02-12T08:34:34.236Z,1022.14
2019-02-12T08:35:34.215Z,1022.12
2019-02-12T08:36:34.208Z,1022.11
2019-02-12T08:37:34.200Z,1022.15
2019-02-12T08:38:34.192Z,1022.18
2019-02-12T08:39:34.203Z,1022.17
2019-02-12T08:40:34.178Z,1022.20
2019-02-12T08:41:34.172Z,1022.23
2019-02-12T08:42:34.163Z,1022.19
2019-02-12T08:43:34.155Z,1022.23
2019-02-12T08:44:34.148Z,1022.26
2019-02-12T08:45:34.161Z,1022.26
2019-02-12T08:46:34.136Z,1022.30
2019-02-12T08:47:34.125Z,1022.33
2019-02-12T08:48:34.120Z,1022.30
2019-02-12T08:49:34.109Z,1022.35
2019-02-12T08:50:34.102Z,1022.35
2019-02-12T08:51:34.096Z,1022.35
2019-02-12T08:52:34.088Z,1022.34
2019-02-12T08:53:34.081Z,1022.34
2019-02-12T08:54:34.079Z,1022.34
2019-02-12T08:55:34.067Z,1022.36
2019-02-12T08:56:34.062Z,1022.41
2019-02-12T08:57:34.051Z,1022.42
2019-02-12T08:58:34.044Z,1022.46
2019-02-12T08:59:34.036Z,1022.44
2019-02-12T09:00:34.033Z,1022.47
2019-02-12T09:01:34.022Z,1022.46
2019-02-12T09:02:34.014Z,1022.42
2019-02-12T09:03:34.008Z,1022.36
2019-02-12T09:04:34.001Z,1022.34
2019-02-12T09:05:33.992Z,1022.34
2019-02-12T09:06:33.985Z,1022.29
2019-02-12T09:07:33.983Z,1022.31
2019-02-12T09:08:33.980Z,1022.32
2019-02-12T09:09:33.965Z,1022.30
2019-02-12T09:10:33.961Z,1022.29
2019-02-12T09:11:33.951Z,1022.27
2019-02-12T09:12:33.945Z,1022.28
2019-02-12T09:13:33.938Z,1022.28
2019-02-12T09:14:33.929Z,1022.33
2019-02-12T09:15:33.933Z,1022.34
2019-02-12T09:16:33.917Z,1022.31
2019-02-12T09:17:33.912Z,1022.30
2019-02-12T09:18:33.902Z,1022.30
2019-02-12T09:19:33.897Z,1022.29
2019-02-12T09:20:33.889Z,1022.35
2019-02-12T09:21:33.883Z,1022.40
2019-02-12T09:22:33.875Z,1022.37
2019-02-12T09:23:33.869Z,1022.41
2019-02-12T09:24:33.874Z,1022.37
2019-02-12T09:25:33.856Z,1022.38
2019-02-12T09:26:33.849Z,1022.40
2019-02-12T09:27:33.843Z,1022.41
2019-02-12T09:28:33.836Z,1022.44
2019-02-12T09:29:33.829Z,1022.42
2019-02-12T09:30:33.826Z,1022.40
2019-02-12T09:31:33.817Z,1022.40
2019-02-12T09:32:33.811Z,1022.43
2019-02-12T09:33:33.807Z,1022.46
2019-02-12T09:34:33.797Z,1022.45
2019-02-12T09:35:33.791Z,1022.49
2019-02-12T09:36:33.787Z,1022.51
2019-02-12T09:37:34.066Z,1022.51
2019-02-12T09:38:33.769Z,1022.49
2019-02-12T09:39:33.763Z,1022.52
2019-02-12T09:40:33.757Z,1022.52
2019-02-12T09:41:33.748Z,1022.57
2019-02-12T09:42:33.743Z,1022.60
2019-02-12T09:43:33.736Z,1022.65
2019-02-12T09:44:33.746Z,1022.66
2019-02-12T09:45:33.731Z,1022.64
2019-02-12T09:46:33.717Z,1022.66
2019-02-12T09:47:33.710Z,1022.66
2019-02-12T09:48:33.705Z,1022.70
2019-02-12T09:49:33.696Z,1022.67
2019-02-12T09:50:33.691Z,1022.68
2019-02-12T09:51:33.684Z,1022.66
2019-02-12T09:52:33.678Z,1022.66
2019-02-12T09:53:33.670Z,1022.64
2019-02-12T09:54:33.665Z,1022.67
2019-02-12T09:55:33.658Z,1022.68
2019-02-12T09:56:33.652Z,1022.69
2019-02-12T09:57:33.645Z,1022.68
2019-02-12T09:58:33.639Z,1022.65
2019-02-12T09:59:33.636Z,1022.67
2019-02-12T10:00:33.626Z,1022.66
2019-02-12T10:01:33.619Z,1022.68
2019-02-12T10:02:33.613Z,1022.70
2019-02-12T10:03:33.606Z,1022.71
2019-02-12T10:04:33.601Z,1022.76
2019-02-12T10:05:33.594Z,1022.80
2019-02-12T10:06:33.587Z,1022.83
2019-02-12T10:07:33.632Z,1022.85
2019-02-12T10:08:33.575Z,1022.91
2019-02-12T10:09:33.568Z,1022.90
2019-02-12T10:10:33.562Z,1022.89
2019-02-12T10:11:33.555Z,1022.93
2019-02-12T10:12:33.550Z,1022.94
2019-02-12T10:13:33.551Z,1022.97
2019-02-12T10:14:33.536Z,1023.00
2019-02-12T10:15:33.532Z,1022.96
2019-02-12T10:16:33.525Z,1022.97
2019-02-12T10:17:33.523Z,1023.00
2019-02-12T10:18:33.512Z,1023.01
2019-02-12T10:19:33.507Z,1022.99
2019-02-12T10:20:33.500Z,1023.00
2019-02-12T10:21:33.494Z,1023.03
2019-02-12T10:22:33.488Z,1023.05
2019-02-12T10:23:33.487Z,1022.94
2019-02-12T10:24:33.476Z,1022.97
2019-02-12T10:25:33.469Z,1022.97
2019-02-12T10:26:33.466Z,1022.97
2019-02-12T10:27:33.458Z,1022.98
2019-02-12T10:28:33.454Z,1023.06
2019-02-12T10:29:33.445Z,1023.08
2019-02-12T10:30:33.440Z,1023.09
2019-02-12T10:31:33.452Z,1023.13
2019-02-12T10:32:33.432Z,1023.13
2019-02-12T10:33:33.423Z,1023.16
2019-02-12T10:34:33.417Z,1023.16
2019-02-12T10:35:33.411Z,1023.21
2019-02-12T10:36:33.406Z,1023.18
2019-02-12T10:37:33.420Z,1023.26
2019-02-12T10:38:33.395Z,1023.26
2019-02-12T10:39:33.390Z,1023.42
2019-02-12T10:40:33.387Z,1023.63
2019-02-12T10:41:33.378Z,1023.73
2019-02-12T10:42:33.374Z,1023.60
2019-02-12T10:43:33.373Z,1023.64
2019-02-12T10:44:33.366Z,1023.65
2019-02-12T10:45:33.358Z,1023.72
2019-02-12T10:46:33.357Z,1023.61
2019-02-12T10:47:33.352Z,1023.63
2019-02-12T10:48:33.346Z,1023.23
2019-02-12T10:49:33.342Z,1023.75
2019-02-12T10:50:33.339Z,1023.68
2019-02-12T10:51:33.334Z,1023.47
2019-02-12T10:52:33.337Z,1023.39
2019-02-12T10:53:33.328Z,1023.04
2019-02-12T10:54:33.325Z,1023.23
2019-02-12T10:55:33.322Z,1023.22
2019-02-12T10:56:33.319Z,1022.96
2019-02-12T10:57:33.319Z,1023.25
2019-02-12T10:58:33.313Z,1023.33
2019-02-12T10:59:33.310Z,1023.01
2019-02-12T11:00:33.307Z,1022.97
2019-02-12T11:01:33.303Z,1023.07
2019-02-12T11:02:33.302Z,1022.96
2019-02-12T11:03:33.297Z,1023.02
2019-02-12T11:04:33.294Z,1022.93
2019-02-12T11:05:33.292Z,1023.27
2019-02-12T11:06:33.287Z,1023.00
2019-02-12T11:07:33.285Z,1022.89
2019-02-12T11:08:33.281Z,1022.83
2019-02-12T11:09:33.276Z,1022.83
2019-02-12T11:10:33.278Z,1022.86
2019-02-12T11:11:33.271Z,1022.83
2019-02-12T11:12:33.268Z,1022.90
2019-02-12T11:13:33.263Z,1022.91
2019-02-12T11:14:33.264Z,1023.09
2019-02-12T11:15:33.257Z,1022.88
2019-02-12T11:16:33.252Z,1022.84
2019-02-12T11:17:33.247Z,1022.87
2019-02-12T11:18:33.245Z,1022.84
2019-02-12T11:19:33.241Z,1022.81
2019-02-12T11:20:33.237Z,1022.81
2019-02-12T11:21:33.233Z,1022.80
2019-02-12T11:22:33.231Z,1022.84
2019-02-12T11:23:33.225Z,1022.81
2019-02-12T11:24:35.553Z,1022.77
2019-02-12T11:25:33.219Z,1022.78
2019-02-12T11:26:33.214Z,1022.83
2019-02-12T11:27:33.209Z,1022.81
2019-02-12T11:28:33.206Z,1022.77
2019-02-12T11:29:33.201Z,1022.84
2019-02-12T11:30:33.196Z,1022.74
2019-02-12T11:31:33.192Z,1022.77
2019-02-12T11:32:33.188Z,1022.73
2019-02-12T11:33:33.184Z,1022.71
2019-02-12T11:34:33.180Z,1022.68
2019-02-12T11:35:33.175Z,1022.68
2019-02-12T11:36:33.174Z,1022.66
2019-02-12T11:37:33.168Z,1022.67
2019-02-12T11:38:33.169Z,1022.62
2019-02-12T11:39:33.159Z,1022.64
2019-02-12T11:40:33.155Z,1022.65
2019-02-12T11:41:33.151Z,1022.66
2019-02-12T11:42:33.146Z,1022.66
2019-02-12T11:43:33.143Z,1022.75
2019-02-12T11:44:33.138Z,1022.72
2019-02-12T11:45:33.134Z,1022.79
2019-02-12T11:46:33.130Z,1022.83
2019-02-12T11:47:33.127Z,1022.78
2019-02-12T11:48:33.122Z,1022.79
2019-02-12T11:49:33.117Z,1022.83
2019-02-12T11:50:33.112Z,1022.79
2019-02-12T11:51:33.108Z,1022.82
2019-02-12T11:52:33.105Z,1022.80
2019-02-12T11:53:33.099Z,1022.84
2019-02-12T11:54:33.095Z,1022.75
2019-02-12T11:55:33.092Z,1022.76
2019-02-12T11:56:33.088Z,1022.75
2019-02-12T11:57:33.083Z,1022.72
2019-02-12T11:58:33.079Z,1022.74
2019-02-12T11:59:33.074Z,1022.76
2019-02-12T12:00:33.070Z,1022.72
2019-02-12T12:01:33.065Z,1022.71
2019-02-12T12:02:33.062Z,1022.67
2019-02-12T12:03:33.058Z,1022.74
2019-02-12T12:04:33.052Z,1022.69
2019-02-12T12:05:33.047Z,1022.75